Time;durP1;ratioP1;P1;durP2;ratioP2;P2;SDS_P1;SDS_P2;PMS_P1;PMS_P2;Temp;Humidity;BMP_temperature;BMP_pressure;BME280_temperature;BME280_humidity;BME280_pressure;Samples;Min_cycle;Max_cycle;Signal;HPM_P1;HPM_P2
2020/12/30 00:02:12;;;;;;;84.55;38.65;;;4.20;95.30;;;;;;5004017;28;20018;-77
2020/12/30 00:04:38;;;;;;;44.38;25.58;;;4.20;95.30;;;;;;5002559;28;20034;-77
2020/12/30 00:07:04;;;;;;;40.25;19.92;;;4.20;95.20;;;;;;5017963;28;20033;-77
2020/12/30 00:09:29;;;;;;;38.38;19.08;;;4.30;95.40;;;;;;5003570;28;20022;-76
2020/12/30 00:11:55;;;;;;;37.83;19.85;;;4.30;95.10;;;;;;5000258;28;20080;-77
2020/12/30 00:14:21;;;;;;;36.75;18.77;;;4.30;95.10;;;;;;5022082;28;20164;-76
2020/12/30 00:16:46;;;;;;;37.00;19.00;;;4.30;95.10;;;;;;5011550;28;20490;-77
2020/12/30 00:19:12;;;;;;;39.60;20.42;;;4.30;95.00;;;;;;5003722;28;20018;-77
2020/12/30 00:21:38;;;;;;;41.83;20.35;;;4.30;95.10;;;;;;5004866;28;20030;-77
2020/12/30 00:24:04;;;;;;;39.13;21.38;;;4.20;95.10;;;;;;4995810;28;20022;-76
2020/12/30 00:26:29;;;;;;;39.38;20.08;;;4.30;95.20;;;;;;4980888;28;20072;-77
2020/12/30 00:28:55;;;;;;;42.83;21.02;;;4.30;95.10;;;;;;5010636;28;20073;-77
2020/12/30 00:31:21;;;;;;;45.50;21.73;;;4.30;95.10;;;;;;5013798;28;20048;-76
2020/12/30 00:33:46;;;;;;;43.53;22.10;;;4.30;95.20;;;;;;5010361;28;20489;-76
2020/12/30 00:36:12;;;;;;;47.13;22.88;;;4.30;95.10;;;;;;4997255;28;20025;-77
2020/12/30 00:38:38;;;;;;;45.40;23.15;;;4.40;95.00;;;;;;4982878;28;20135;-76
2020/12/30 00:41:04;;;;;;;50.75;24.35;;;4.30;95.10;;;;;;5018952;28;20112;-76
2020/12/30 00:43:29;;;;;;;49.20;24.58;;;4.30;95.00;;;;;;5021918;28;20018;-77
2020/12/30 00:45:55;;;;;;;47.85;23.15;;;4.30;95.10;;;;;;4997575;28;20122;-76
2020/12/30 00:48:21;;;;;;;56.42;26.42;;;4.30;95.10;;;;;;5010389;28;20022;-77
2020/12/30 00:50:46;;;;;;;46.58;23.70;;;4.40;94.90;;;;;;4995560;28;20645;-76
2020/12/30 00:53:12;;;;;;;51.03;25.83;;;4.40;94.90;;;;;;4998579;28;20384;-77
2020/12/30 00:55:38;;;;;;;49.33;25.15;;;4.40;94.90;;;;;;4980797;28;20080;-76
2020/12/30 00:58:03;;;;;;;52.28;25.38;;;4.50;94.80;;;;;;5006613;28;20112;-76
2020/12/30 01:00:29;;;;;;;48.22;24.15;;;4.40;94.70;;;;;;5016149;28;20030;-76
2020/12/30 01:02:54;;;;;;;48.65;24.60;;;4.40;94.70;;;;;;5021441;28;20117;-76
2020/12/30 01:05:21;;;;;;;51.10;25.55;;;4.40;94.70;;;;;;4998938;28;20050;-76
2020/12/30 01:07:47;;;;;;;53.15;25.02;;;4.40;94.60;;;;;;5019405;28;20120;-77
2020/12/30 01:10:12;;;;;;;48.50;24.92;;;4.40;94.80;;;;;;4997803;28;20560;-76
2020/12/30 01:12:38;;;;;;;50.92;25.25;;;4.40;94.60;;;;;;5015495;28;20517;-77
2020/12/30 01:15:05;;;;;;;54.83;25.42;;;4.40;94.70;;;;;;5004636;28;20089;-76
2020/12/30 01:17:33;;;;;;;52.28;24.80;;;4.40;94.70;;;;;;4999115;28;20026;-76
2020/12/30 01:19:59;;;;;;;44.53;23.98;;;4.40;94.80;;;;;;4993516;28;20029;-77
2020/12/30 01:22:25;;;;;;;52.65;26.63;;;4.50;94.50;;;;;;5020503;28;20026;-77
2020/12/30 01:24:50;;;;;;;56.72;26.98;;;4.50;94.50;;;;;;4982791;28;20028;-76
2020/12/30 01:27:16;;;;;;;57.40;27.23;;;4.50;94.50;;;;;;5016577;28;20026;-76
2020/12/30 01:29:42;;;;;;;54.53;26.38;;;4.50;94.50;;;;;;4997565;28;20030;-77
2020/12/30 01:32:08;;;;;;;50.28;24.42;;;4.50;94.50;;;;;;5007478;28;20497;-77
2020/12/30 01:34:33;;;;;;;54.30;26.50;;;4.50;94.60;;;;;;4995633;28;20041;-77
2020/12/30 01:36:59;;;;;;;53.55;25.95;;;4.50;94.60;;;;;;4997578;28;20084;-76
2020/12/30 01:39:25;;;;;;;54.10;25.60;;;4.50;94.50;;;;;;5006147;28;20079;-76
2020/12/30 01:41:50;;;;;;;52.50;26.75;;;4.50;94.40;;;;;;5020142;28;20030;-77
2020/12/30 01:44:17;;;;;;;58.60;27.02;;;4.50;94.50;;;;;;4997164;28;20084;-76
2020/12/30 01:46:45;;;;;;;56.28;26.38;;;4.50;94.40;;;;;;4998984;28;20026;-76
2020/12/30 01:49:22;;;;;;;56.83;26.35;;;4.50;94.40;;;;;;4999441;28;20061;-76
2020/12/30 01:51:53;;;;;;;49.00;24.15;;;4.60;94.30;;;;;;5000393;28;20294;-76
2020/12/30 01:54:19;;;;;;;54.08;26.15;;;4.50;94.30;;;;;;4997306;28;20034;-77
2020/12/30 01:56:46;;;;;;;49.80;25.33;;;4.50;94.30;;;;;;4981270;28;20033;-77
2020/12/30 01:59:15;;;;;;;51.50;26.52;;;4.50;94.30;;;;;;4995966;28;20029;-76
2020/12/30 02:01:43;;;;;;;47.78;25.65;;;4.60;94.20;;;;;;4978373;28;20034;-76
2020/12/30 02:04:15;;;;;;;49.78;25.45;;;4.60;94.20;;;;;;5020182;28;20025;-76
2020/12/30 02:06:40;;;;;;;56.05;25.77;;;4.50;94.20;;;;;;4996155;28;20038;-76
2020/12/30 02:09:06;;;;;;;58.67;27.27;;;4.50;94.20;;;;;;5008414;28;20516;-76
2020/12/30 02:11:33;;;;;;;57.60;28.17;;;4.50;94.20;;;;;;4999404;28;20079;-77
2020/12/30 02:14:05;;;;;;;50.30;26.98;;;4.50;94.20;;;;;;4999698;28;20079;-76
2020/12/30 02:16:32;;;;;;;50.33;26.33;;;4.50;94.10;;;;;;5008903;28;20038;-77
2020/12/30 02:19:01;;;;;;;48.20;25.48;;;4.50;94.20;;;;;;4994737;28;20115;-76
2020/12/30 02:21:27;;;;;;;55.95;27.33;;;4.50;94.20;;;;;;5008724;28;20026;-76
2020/12/30 02:23:55;;;;;;;55.40;26.42;;;4.50;94.10;;;;;;5003874;28;20555;-77
2020/12/30 02:26:20;;;;;;;47.92;25.05;;;4.50;94.00;;;;;;4978837;28;20030;-77
2020/12/30 02:28:46;;;;;;;51.92;26.00;;;4.50;93.80;;;;;;5009619;28;20041;-77
2020/12/30 02:31:12;;;;;;;51.70;24.75;;;4.60;93.90;;;;;;5019503;28;20032;-76
2020/12/30 02:33:37;;;;;;;52.58;25.95;;;4.60;94.00;;;;;;4987137;28;20045;-76
2020/12/30 02:36:03;;;;;;;46.72;24.55;;;4.50;93.80;;;;;;4988904;28;20037;-76
2020/12/30 02:38:29;;;;;;;47.85;24.92;;;4.60;93.90;;;;;;5021154;28;20164;-76
2020/12/30 02:40:59;;;;;;;49.20;25.73;;;4.50;93.90;;;;;;5000701;28;20030;-77
2020/12/30 02:43:24;;;;;;;49.58;25.65;;;4.50;93.90;;;;;;5012114;28;20057;-76
2020/12/30 02:45:50;;;;;;;46.45;25.63;;;4.50;93.90;;;;;;5006236;28;20107;-76
2020/12/30 02:48:16;;;;;;;45.15;25.38;;;4.50;93.90;;;;;;5013664;28;20032;-75
2020/12/30 02:50:41;;;;;;;48.38;24.98;;;4.50;93.70;;;;;;5014592;28;20030;-76
2020/12/30 02:53:07;;;;;;;45.10;23.55;;;4.50;94.00;;;;;;5012952;28;20026;-76
2020/12/30 02:55:33;;;;;;;42.03;23.55;;;4.50;93.80;;;;;;4983446;28;20068;-76
2020/12/30 02:57:58;;;;;;;44.28;24.17;;;4.50;93.80;;;;;;5001937;28;20051;-76
2020/12/30 03:00:24;;;;;;;46.75;25.13;;;4.50;93.80;;;;;;5002242;28;20477;-76
2020/12/30 03:02:50;;;;;;;45.50;23.60;;;4.40;93.80;;;;;;5000773;28;20545;-76
2020/12/30 03:05:15;;;;;;;41.67;23.70;;;4.50;93.70;;;;;;5000368;28;20018;-76
2020/12/30 03:07:41;;;;;;;45.20;24.65;;;4.50;93.80;;;;;;5000226;28;20061;-77
2020/12/30 03:10:07;;;;;;;44.10;22.80;;;4.50;93.70;;;;;;5012759;28;20121;-76
2020/12/30 03:12:33;;;;;;;42.28;23.90;;;4.40;93.70;;;;;;5013024;28;20501;-76
2020/12/30 03:14:58;;;;;;;49.30;25.65;;;4.40;93.70;;;;;;5002482;28;20048;-76
2020/12/30 03:17:24;;;;;;;44.03;21.88;;;4.40;93.70;;;;;;4998693;28;20030;-76
2020/12/30 03:19:49;;;;;;;49.03;24.17;;;4.40;93.70;;;;;;5012542;28;20026;-76
2020/12/30 03:22:15;;;;;;;46.25;24.05;;;4.40;93.80;;;;;;4982735;28;20026;-76
2020/12/30 03:24:41;;;;;;;46.10;23.55;;;4.40;93.60;;;;;;5019282;28;20033;-76
2020/12/30 03:27:07;;;;;;;45.92;24.73;;;4.40;93.70;;;;;;5011134;28;20285;-77
2020/12/30 03:29:32;;;;;;;46.40;24.10;;;4.40;93.80;;;;;;5023440;28;20022;-76
2020/12/30 03:31:58;;;;;;;44.50;23.92;;;4.40;93.70;;;;;;5011255;28;20485;-77
2020/12/30 03:34:24;;;;;;;43.05;23.58;;;4.40;93.70;;;;;;4996483;28;20030;-76
2020/12/30 03:36:50;;;;;;;42.28;22.45;;;4.40;93.80;;;;;;5023615;28;20669;-76
2020/12/30 03:39:15;;;;;;;41.92;22.35;;;4.40;93.80;;;;;;5010601;28;20965;-76
2020/12/30 03:41:42;;;;;;;42.72;22.98;;;4.50;93.70;;;;;;5023504;28;20036;-77
2020/12/30 03:44:07;;;;;;;42.55;22.75;;;4.40;93.60;;;;;;4996623;28;20136;-76
2020/12/30 03:46:33;;;;;;;41.50;21.90;;;4.40;93.70;;;;;;4984540;28;20569;-76
2020/12/30 03:48:59;;;;;;;42.28;22.17;;;4.40;93.50;;;;;;4999697;28;20489;-77
2020/12/30 03:51:24;;;;;;;42.38;22.85;;;4.40;93.60;;;;;;4981616;28;20552;-76
2020/12/30 03:53:50;;;;;;;38.53;20.67;;;4.40;93.50;;;;;;5011754;28;20445;-77
2020/12/30 03:56:15;;;;;;;43.80;22.85;;;4.40;93.50;;;;;;5009799;28;20475;-77
2020/12/30 03:58:41;;;;;;;43.55;22.23;;;4.40;93.50;;;;;;5015337;28;20501;-77
2020/12/30 04:01:07;;;;;;;45.05;21.92;;;4.40;93.40;;;;;;5004262;28;20034;-76
2020/12/30 04:03:33;;;;;;;37.47;20.38;;;4.40;93.50;;;;;;4991827;28;20470;-77
2020/12/30 04:05:58;;;;;;;39.80;20.75;;;4.50;93.20;;;;;;5007091;28;20417;-76
2020/12/30 04:08:24;;;;;;;36.88;20.80;;;4.40;93.40;;;;;;4978959;28;20022;-77
2020/12/30 04:10:50;;;;;;;38.47;20.80;;;4.50;93.20;;;;;;5023544;28;20075;-76
2020/12/30 04:13:18;;;;;;;38.28;21.23;;;4.50;93.30;;;;;;5021016;28;20022;-77
2020/12/30 04:15:47;;;;;;;40.45;21.63;;;4.50;93.20;;;;;;5024026;28;20099;-77
2020/12/30 04:18:12;;;;;;;40.72;20.65;;;4.50;93.30;;;;;;5022999;28;20090;-76
2020/12/30 04:20:38;;;;;;;41.28;21.38;;;4.50;93.30;;;;;;5000538;28;20117;-76
2020/12/30 04:23:04;;;;;;;38.33;20.80;;;4.50;93.20;;;;;;5016236;28;20026;-76
2020/12/30 04:25:30;;;;;;;41.35;21.20;;;4.40;93.30;;;;;;5004384;28;20025;-76
2020/12/30 04:27:55;;;;;;;36.15;20.20;;;4.40;93.20;;;;;;5010043;28;20030;-77
2020/12/30 04:30:21;;;;;;;38.35;20.63;;;4.40;93.30;;;;;;5006581;28;20026;-76
2020/12/30 04:32:47;;;;;;;40.28;22.10;;;4.40;93.30;;;;;;5009971;28;20109;-76
2020/12/30 04:35:13;;;;;;;40.38;21.60;;;4.50;93.20;;;;;;4994755;28;20131;-76
2020/12/30 04:37:39;;;;;;;41.13;22.70;;;4.50;93.10;;;;;;4982351;28;20538;-76
2020/12/30 04:40:04;;;;;;;35.55;20.63;;;4.40;93.10;;;;;;5001476;28;20535;-76
2020/12/30 04:42:33;;;;;;;41.95;21.77;;;4.40;93.20;;;;;;4997912;28;20417;-77
2020/12/30 04:45:05;;;;;;;43.50;22.95;;;4.40;93.30;;;;;;4997537;28;20026;-76
2020/12/30 04:47:32;;;;;;;41.45;22.65;;;4.50;93.30;;;;;;4981871;28;20184;-76
2020/12/30 04:49:58;;;;;;;39.10;21.80;;;4.50;93.30;;;;;;5023013;28;20110;-76
2020/12/30 04:52:26;;;;;;;41.60;22.35;;;4.50;93.20;;;;;;4995856;28;20069;-77
2020/12/30 04:54:52;;;;;;;43.63;22.63;;;4.40;93.20;;;;;;4989445;28;20022;-77
2020/12/30 04:57:58;;;;;;;38.10;21.83;;;4.50;93.20;;;;;;4998529;28;20500;-76
2020/12/30 05:00:27;;;;;;;47.10;22.92;;;4.40;93.20;;;;;;4977285;28;20332;-76
2020/12/30 05:02:56;;;;;;;43.65;22.17;;;4.40;93.20;;;;;;5005042;28;20613;-76
2020/12/30 05:05:22;;;;;;;39.08;20.70;;;4.40;93.20;;;;;;4980996;28;20045;-77
2020/12/30 05:07:48;;;;;;;43.35;23.05;;;4.50;93.20;;;;;;5009584;28;20076;-76
2020/12/30 05:10:16;;;;;;;37.78;20.88;;;4.50;93.10;;;;;;5008335;28;20026;-76
2020/12/30 05:12:43;;;;;;;39.53;21.73;;;4.50;93.10;;;;;;5000194;28;20041;-77
2020/12/30 05:15:09;;;;;;;39.15;21.50;;;4.40;93.10;;;;;;5001121;28;20022;-76
2020/12/30 05:17:35;;;;;;;40.88;22.35;;;4.40;93.00;;;;;;4993615;28;20124;-77
2020/12/30 05:20:01;;;;;;;41.25;21.33;;;4.40;93.10;;;;;;4995256;28;20168;-76
2020/12/30 05:22:33;;;;;;;41.22;21.75;;;4.40;93.00;;;;;;5099179;27;20410;-77
2020/12/30 05:25:05;;;;;;;41.58;21.52;;;4.40;92.90;;;;;;5077009;28;20028;-76
2020/12/30 05:27:31;;;;;;;39.17;21.42;;;4.40;93.00;;;;;;5092934;28;20032;-77
2020/12/30 05:29:58;;;;;;;41.95;22.17;;;4.40;93.00;;;;;;5074485;28;20026;-76
2020/12/30 05:32:27;;;;;;;42.53;21.88;;;4.40;92.90;;;;;;5092378;28;20031;-77
2020/12/30 05:34:54;;;;;;;36.47;20.38;;;4.40;92.90;;;;;;5070740;23;20530;-74
2020/12/30 05:37:30;;;;;;;37.30;20.10;;;4.40;92.90;;;;;;5041531;28;20018;-75
2020/12/30 05:39:56;;;;;;;41.78;21.67;;;4.50;93.40;;;;;;5044346;28;20380;-75
2020/12/30 05:42:22;;;;;;;38.80;20.85;;;4.50;92.90;;;;;;5026396;28;20033;-75
2020/12/30 05:44:50;;;;;;;37.80;20.92;;;4.40;92.80;;;;;;5062115;28;20450;-75
2020/12/30 05:47:17;;;;;;;35.83;20.65;;;4.50;92.70;;;;;;5044298;28;20082;-75
2020/12/30 05:49:47;;;;;;;39.55;21.48;;;4.40;92.80;;;;;;5027541;28;20017;-75
2020/12/30 05:52:15;;;;;;;39.65;21.60;;;4.50;92.70;;;;;;5041869;28;20029;-75
2020/12/30 05:54:49;;;;;;;39.45;21.55;;;4.50;92.70;;;;;;5044722;28;20200;-75
2020/12/30 05:57:23;;;;;;;39.80;19.98;;;4.40;92.70;;;;;;5043032;28;20435;-75
2020/12/30 05:59:51;;;;;;;40.97;20.27;;;4.40;92.70;;;;;;5044753;28;20025;-75
2020/12/30 06:02:22;;;;;;;39.67;20.95;;;4.40;92.60;;;;;;5059018;28;20401;-75
2020/12/30 06:04:50;;;;;;;36.15;18.90;;;4.50;92.50;;;;;;5044587;28;20082;-75
2020/12/30 06:07:17;;;;;;;39.67;21.00;;;4.40;92.50;;;;;;5043433;28;20040;-75
2020/12/30 06:09:51;;;;;;;34.13;18.90;;;4.40;92.50;;;;;;5043151;28;20091;-75
2020/12/30 06:12:23;;;;;;;33.95;19.42;;;4.40;92.40;;;;;;5024488;28;20079;-75
2020/12/30 06:14:50;;;;;;;39.60;21.27;;;4.40;92.50;;;;;;5044777;28;20484;-75
2020/12/30 06:17:25;;;;;;;33.92;18.92;;;4.40;92.50;;;;;;5042616;28;20025;-75
2020/12/30 06:19:52;;;;;;;38.85;20.15;;;4.40;92.40;;;;;;5058450;28;20029;-74
2020/12/30 06:22:23;;;;;;;37.97;18.80;;;4.40;92.30;;;;;;5060447;28;20025;-75
2020/12/30 06:24:51;;;;;;;37.33;19.45;;;4.50;92.50;;;;;;5026162;28;20056;-75
2020/12/30 06:27:25;;;;;;;32.60;18.67;;;4.50;92.20;;;;;;5041202;28;20025;-75
2020/12/30 06:29:54;;;;;;;31.38;17.90;;;4.40;92.20;;;;;;5060402;28;20083;-75
2020/12/30 06:32:32;;;;;;;34.72;18.65;;;4.40;92.20;;;;;;5020230;28;20029;-75
2020/12/30 06:34:58;;;;;;;34.97;19.88;;;4.40;92.30;;;;;;5031033;28;20068;-74
2020/12/30 06:37:41;;;;;;;32.90;18.75;;;4.40;92.30;;;;;;5033065;28;20038;-74
2020/12/30 06:40:22;;;;;;;35.85;19.35;;;4.40;92.20;;;;;;5046401;28;20021;-74
2020/12/30 06:42:55;;;;;;;34.77;19.40;;;4.40;92.20;;;;;;5042103;28;20049;-75
2020/12/30 06:45:42;;;;;;;36.15;19.08;;;4.40;92.30;;;;;;5025089;28;20363;-74
2020/12/30 06:48:09;;;;;;;34.00;19.60;;;4.40;92.20;;;;;;5030047;28;20029;-74
2020/12/30 06:50:35;;;;;;;34.83;19.17;;;4.50;92.20;;;;;;5045775;28;20037;-75
2020/12/30 06:53:26;;;;;;;38.15;20.05;;;4.40;92.20;;;;;;5030527;28;20026;-75
2020/12/30 06:55:53;;;;;;;33.88;19.38;;;4.40;92.00;;;;;;5045352;28;20029;-74
2020/12/30 06:58:41;;;;;;;38.22;20.73;;;4.40;92.00;;;;;;5027133;28;20029;-75
2020/12/30 07:01:06;;;;;;;35.53;18.98;;;4.40;92.20;;;;;;5045034;28;20507;-75
2020/12/30 07:03:32;;;;;;;32.08;18.42;;;4.40;92.10;;;;;;5046470;28;20034;-75
2020/12/30 07:06:31;;;;;;;35.88;18.25;;;4.40;92.10;;;;;;5014029;28;20068;-75
2020/12/30 07:08:59;;;;;;;32.78;19.13;;;4.40;92.30;;;;;;5030796;28;20029;-75
2020/12/30 07:11:50;;;;;;;35.97;19.25;;;4.40;92.00;;;;;;5029186;28;20029;-75
2020/12/30 07:14:20;;;;;;;;;;;4.40;92.00;;;;;;5024506;28;20398;-74
2020/12/30 07:16:56;;;;;;;35.35;19.20;;;4.40;92.20;;;;;;5026739;28;19913;-75
2020/12/30 07:19:24;;;;;;;36.47;20.20;;;4.40;92.00;;;;;;5026202;28;20108;-74
2020/12/30 07:21:50;;;;;;;33.22;18.63;;;4.50;92.00;;;;;;5007445;28;20259;-74
2020/12/30 07:24:30;;;;;;;35.95;20.33;;;4.40;92.00;;;;;;5029965;28;20412;-74
2020/12/30 07:27:07;;;;;;;36.10;19.48;;;4.40;92.10;;;;;;5028629;28;20029;-74
2020/12/30 07:29:33;;;;;;;34.47;20.27;;;4.40;92.00;;;;;;5010447;28;20083;-75
2020/12/30 07:32:04;;;;;;;35.58;19.65;;;4.50;91.90;;;;;;5026895;28;20032;-74
2020/12/30 07:34:32;;;;;;;40.45;20.50;;;4.50;92.20;;;;;;5027323;28;20034;-74
2020/12/30 07:36:58;;;;;;;37.08;20.70;;;4.50;91.80;;;;;;5043231;28;20029;-75
2020/12/30 07:39:27;;;;;;;37.25;21.05;;;4.50;91.90;;;;;;5029152;28;20404;-74
2020/12/30 07:41:53;;;;;;;38.08;20.98;;;4.40;92.00;;;;;;5032890;28;20035;-75
2020/12/30 07:44:18;;;;;;;40.78;21.48;;;4.40;92.00;;;;;;5044299;28;20501;-74
2020/12/30 07:46:44;;;;;;;35.92;19.88;;;4.40;91.90;;;;;;5011544;28;20033;-75
2020/12/30 07:49:12;;;;;;;37.25;19.75;;;4.30;92.00;;;;;;5027252;28;20025;-75
2020/12/30 07:51:46;;;;;;;43.92;19.50;;;4.40;92.10;;;;;;5030037;28;20112;-75
2020/12/30 07:54:16;;;;;;;37.85;20.70;;;4.40;91.80;;;;;;5027612;28;21698;-74
2020/12/30 07:56:42;;;;;;;34.70;19.88;;;4.40;91.80;;;;;;5044791;28;20636;-74
2020/12/30 07:59:08;;;;;;;38.97;19.42;;;4.40;92.00;;;;;;5014269;28;20036;-74
2020/12/30 08:01:35;;;;;;;33.13;19.10;;;4.40;92.00;;;;;;5030750;28;20033;-74
2020/12/30 08:04:08;;;;;;;33.80;18.50;;;4.40;91.70;;;;;;5018275;28;20029;-74
2020/12/30 08:06:47;;;;;;;34.67;18.88;;;4.30;91.90;;;;;;5032064;28;20032;-74
2020/12/30 08:09:14;;;;;;;32.42;18.63;;;4.40;91.90;;;;;;5013713;28;20017;-73
2020/12/30 08:11:50;;;;;;;31.83;18.80;;;4.40;91.80;;;;;;5030075;28;20025;-74
2020/12/30 08:14:16;;;;;;;32.90;18.23;;;4.40;92.00;;;;;;5033776;28;20025;-74
2020/12/30 08:17:07;;;;;;;33.90;18.27;;;4.40;91.90;;;;;;5032024;28;20369;-74
2020/12/30 08:19:43;;;;;;;35.38;19.17;;;4.40;91.80;;;;;;5029843;28;20124;-76
2020/12/30 08:22:14;;;;;;;36.53;18.35;;;4.40;91.80;;;;;;5046439;28;20428;-74
2020/12/30 08:24:47;;;;;;;34.80;19.50;;;4.30;91.70;;;;;;5041636;28;20045;-76
2020/12/30 08:27:17;;;;;;;36.75;18.38;;;4.30;91.90;;;;;;5044841;28;20033;-75
2020/12/30 08:29:44;;;;;;;34.28;19.27;;;4.30;91.90;;;;;;5029815;28;20079;-75
2020/12/30 08:32:33;;;;;;;36.97;19.73;;;4.30;91.90;;;;;;5010414;28;20101;-76
2020/12/30 08:35:10;;;;;;;34.67;18.58;;;4.30;92.00;;;;;;5030822;28;20037;-77
2020/12/30 08:37:41;;;;;;;39.78;20.20;;;4.30;92.10;;;;;;5013415;28;20105;-76
2020/12/30 08:40:16;;;;;;;42.97;20.05;;;4.30;91.80;;;;;;5030318;28;20033;-77
2020/12/30 08:42:54;;;;;;;36.92;20.35;;;4.30;91.80;;;;;;5011014;28;20558;-75
2020/12/30 08:45:33;;;;;;;42.38;21.23;;;4.30;91.80;;;;;;5047269;28;20025;-75
2020/12/30 08:48:12;;;;;;;35.92;20.40;;;4.20;91.80;;;;;;5029674;28;20025;-75
2020/12/30 08:50:38;;;;;;;36.78;21.00;;;4.20;91.90;;;;;;5029488;28;20095;-75
2020/12/30 08:53:04;;;;;;;38.05;20.17;;;4.30;91.80;;;;;;5013562;28;20606;-75
2020/12/30 08:55:29;;;;;;;38.60;20.70;;;4.20;91.70;;;;;;5028234;28;20026;-75
2020/12/30 08:57:57;;;;;;;39.45;20.30;;;4.30;91.70;;;;;;5013189;28;20501;-75
2020/12/30 09:00:24;;;;;;;39.75;21.23;;;4.20;91.70;;;;;;5029687;28;20189;-74
2020/12/30 09:02:51;;;;;;;43.63;22.08;;;4.20;91.70;;;;;;5030880;28;20018;-73
2020/12/30 09:05:30;;;;;;;41.45;21.02;;;4.20;91.90;;;;;;5030534;28;20045;-74
2020/12/30 09:08:16;;;;;;;37.13;20.48;;;4.20;91.70;;;;;;5032307;28;20492;-74
2020/12/30 09:10:43;;;;;;;43.58;20.67;;;4.20;91.70;;;;;;5029557;28;20026;-73
2020/12/30 09:13:12;;;;;;;45.55;22.75;;;4.20;91.80;;;;;;5011290;28;20029;-75
2020/12/30 09:15:38;;;;;;;43.88;21.42;;;4.10;91.80;;;;;;5027815;28;20025;-75
2020/12/30 09:18:04;;;;;;;40.13;21.40;;;4.20;91.90;;;;;;5046481;28;20022;-75
2020/12/30 09:20:34;;;;;;;38.28;19.50;;;4.20;91.70;;;;;;5028053;28;20432;-74
2020/12/30 09:23:01;;;;;;;42.05;21.50;;;4.20;91.80;;;;;;5015921;28;20017;-74
2020/12/30 09:25:28;;;;;;;43.35;20.73;;;4.10;91.60;;;;;;5026602;28;20075;-74
2020/12/30 09:27:55;;;;;;;43.53;20.90;;;4.10;91.80;;;;;;5027097;28;20448;-76
2020/12/30 09:30:25;;;;;;;40.30;21.08;;;4.00;91.60;;;;;;5013526;28;20029;-77
2020/12/30 09:32:54;;;;;;;42.20;20.77;;;4.00;91.80;;;;;;5028222;28;20108;-76
2020/12/30 09:35:27;;;;;;;42.28;21.77;;;4.00;92.00;;;;;;5013358;28;20766;-77
2020/12/30 09:37:57;;;;;;;41.75;20.40;;;4.00;91.90;;;;;;5027905;28;20034;-76
2020/12/30 09:40:24;;;;;;;43.03;21.25;;;4.00;91.80;;;;;;5013543;28;20075;-77
2020/12/30 09:42:50;;;;;;;41.35;21.10;;;4.00;91.90;;;;;;5043474;28;20028;-77
2020/12/30 09:45:19;;;;;;;39.80;21.35;;;4.00;91.80;;;;;;5032427;28;20027;-76
2020/12/30 09:47:46;;;;;;;40.45;20.80;;;4.00;92.00;;;;;;5015730;28;20060;-74
2020/12/30 09:50:14;;;;;;;41.92;20.98;;;4.10;92.10;;;;;;5029686;28;20013;-75
2020/12/30 09:52:41;;;;;;;42.90;22.17;;;4.10;91.90;;;;;;5026407;28;20052;-73
2020/12/30 09:55:08;;;;;;;37.00;19.75;;;4.10;91.80;;;;;;5028270;28;20033;-72
2020/12/30 09:57:35;;;;;;;42.80;20.55;;;4.10;91.90;;;;;;5027585;28;20022;-76
2020/12/30 10:00:02;;;;;;;38.38;20.42;;;4.10;91.90;;;;;;5027714;28;20029;-73
2020/12/30 10:02:27;;;;;;;39.20;20.55;;;4.20;91.90;;;;;;5010141;28;20572;-72
2020/12/30 10:04:53;;;;;;;43.67;21.40;;;4.10;91.90;;;;;;5027288;28;20048;-76
2020/12/30 10:07:19;;;;;;;38.92;20.40;;;4.20;91.80;;;;;;5013440;28;20032;-74
2020/12/30 10:09:45;;;;;;;42.45;21.10;;;4.10;91.80;;;;;;5016500;28;20460;-74
2020/12/30 10:12:10;;;;;;;41.35;20.40;;;4.10;91.80;;;;;;5031809;28;20045;-76
2020/12/30 10:14:36;;;;;;;41.03;20.58;;;4.10;91.90;;;;;;5014450;28;20064;-77
2020/12/30 10:17:02;;;;;;;37.50;19.77;;;4.10;91.70;;;;;;5030293;28;20033;-78
2020/12/30 10:19:27;;;;;;;37.85;19.95;;;4.10;91.80;;;;;;5047594;28;20025;-75
2020/12/30 10:21:53;;;;;;;38.50;19.70;;;4.10;92.00;;;;;;5031410;28;20025;-78
2020/12/30 10:24:20;;;;;;;37.47;19.75;;;4.10;91.70;;;;;;5015352;28;20486;-87
2020/12/30 10:26:46;;;;;;;39.72;20.02;;;4.10;91.60;;;;;;5052034;28;20028;-77
2020/12/30 10:29:11;;;;;;;40.95;20.52;;;4.10;91.70;;;;;;5017925;28;20021;-77
2020/12/30 10:31:37;;;;;;;41.38;22.02;;;4.10;91.80;;;;;;5025354;28;20164;-74
2020/12/30 10:34:03;;;;;;;42.60;20.10;;;4.00;91.90;;;;;;5014578;28;20120;-75
2020/12/30 10:36:30;;;;;;;39.78;20.30;;;4.10;91.90;;;;;;5029512;28;20064;-75
2020/12/30 10:38:57;;;;;;;43.58;21.85;;;4.10;91.80;;;;;;5046560;28;20037;-74
2020/12/30 10:41:23;;;;;;;34.67;18.50;;;4.10;91.90;;;;;;5013154;28;20039;-76
2020/12/30 10:43:48;;;;;;;39.30;19.63;;;4.10;91.90;;;;;;5030163;28;20021;-75
2020/12/30 10:46:18;;;;;;;38.60;19.48;;;4.10;91.90;;;;;;5029727;28;20596;-74
2020/12/30 10:48:45;;;;;;;37.10;20.13;;;4.10;92.10;;;;;;5047131;28;20029;-75
2020/12/30 10:51:12;;;;;;;38.75;19.70;;;4.10;92.00;;;;;;5035284;28;20104;-76
2020/12/30 10:53:37;;;;;;;40.03;20.08;;;4.10;92.00;;;;;;5032349;28;20029;-76
2020/12/30 10:56:03;;;;;;;39.83;19.52;;;4.20;92.10;;;;;;5031591;28;20041;-76
2020/12/30 10:58:29;;;;;;;37.83;20.00;;;4.10;92.00;;;;;;5048957;28;20507;-75
2020/12/30 11:00:55;;;;;;;39.70;21.15;;;4.20;92.10;;;;;;5030486;28;20105;-74
2020/12/30 11:03:24;;;;;;;36.40;19.20;;;4.20;92.00;;;;;;5032978;28;20049;-72
2020/12/30 11:05:50;;;;;;;39.13;19.95;;;4.20;92.20;;;;;;5011374;28;20025;-75
2020/12/30 11:08:16;;;;;;;36.50;18.33;;;4.20;92.20;;;;;;5029402;28;20041;-75
2020/12/30 11:10:41;;;;;;;33.67;16.92;;;4.10;92.30;;;;;;5029894;28;20052;-75
2020/12/30 11:13:12;;;;;;;37.00;19.42;;;4.20;93.20;;;;;;5031080;28;20029;-74
2020/12/30 11:15:40;;;;;;;35.17;19.65;;;4.30;92.40;;;;;;5013163;28;20502;-75
2020/12/30 11:18:06;;;;;;;32.92;18.10;;;4.30;92.20;;;;;;5020867;28;20021;-75
2020/12/30 11:20:31;;;;;;;36.63;19.55;;;4.30;92.20;;;;;;5014907;28;20029;-75
2020/12/30 11:22:57;;;;;;;37.03;19.38;;;4.30;92.30;;;;;;5031796;28;20045;-76
2020/12/30 11:25:23;;;;;;;35.63;18.42;;;4.30;92.10;;;;;;5029741;28;20029;-76
2020/12/30 11:27:49;;;;;;;34.65;18.80;;;4.20;92.20;;;;;;5012712;28;20112;-76
2020/12/30 11:30:15;;;;;;;32.75;18.23;;;4.30;92.30;;;;;;5012644;28;20472;-75
2020/12/30 11:32:43;;;;;;;35.25;18.83;;;4.20;92.20;;;;;;5007132;28;20413;-76
2020/12/30 11:35:10;;;;;;;34.95;18.42;;;4.20;92.30;;;;;;5062686;22;20098;-76
2020/12/30 11:37:36;;;;;;;35.85;18.35;;;4.20;92.30;;;;;;5038907;28;20029;-76
2020/12/30 11:40:02;;;;;;;34.03;17.65;;;4.30;92.10;;;;;;5030707;28;20025;-76
2020/12/30 11:42:28;;;;;;;35.67;18.00;;;4.30;92.20;;;;;;5034670;28;20025;-77
2020/12/30 11:44:54;;;;;;;35.40;18.10;;;4.30;92.20;;;;;;5006609;28;20025;-77
2020/12/30 11:47:19;;;;;;;36.13;18.63;;;4.30;92.30;;;;;;5021956;28;20481;-76
2020/12/30 11:49:45;;;;;;;34.75;18.50;;;4.30;92.20;;;;;;5020804;28;20129;-79
2020/12/30 11:52:13;;;;;;;36.67;19.52;;;4.30;92.30;;;;;;5021683;28;20049;-77
2020/12/30 11:54:39;;;;;;;32.60;18.02;;;4.40;92.20;;;;;;5011774;28;20033;-77
2020/12/30 11:57:05;;;;;;;36.78;19.80;;;4.30;92.30;;;;;;5023128;28;20032;-78
2020/12/30 11:59:31;;;;;;;36.55;19.60;;;4.30;92.20;;;;;;5013817;28;20029;-77
2020/12/30 12:01:57;;;;;;;34.17;19.13;;;4.30;92.20;;;;;;5026536;28;20026;-78
2020/12/30 12:04:22;;;;;;;38.60;18.95;;;4.30;92.30;;;;;;5025029;28;20084;-78
2020/12/30 12:06:49;;;;;;;38.88;20.35;;;4.30;92.30;;;;;;5007417;28;20100;-79
2020/12/30 12:09:15;;;;;;;505.60;245.48;;;4.40;92.40;;;;;;5018988;28;20567;-78
2020/12/30 12:11:41;;;;;;;254.95;123.55;;;4.40;92.50;;;;;;5018072;28;20033;-79
2020/12/30 12:14:07;;;;;;;290.83;138.55;;;4.40;92.40;;;;;;5025452;28;20689;-79
2020/12/30 12:16:33;;;;;;;102.65;58.65;;;4.40;92.40;;;;;;5021937;28;20036;-78
2020/12/30 12:18:59;;;;;;;49.03;28.08;;;4.50;92.30;;;;;;5020425;28;20564;-78
2020/12/30 12:21:24;;;;;;;36.88;19.95;;;4.40;92.20;;;;;;5023911;28;20164;-78
2020/12/30 12:23:50;;;;;;;35.72;19.13;;;4.40;92.20;;;;;;5006006;28;20032;-77
2020/12/30 12:26:28;;;;;;;38.50;19.40;;;4.40;92.30;;;;;;5021852;28;20018;-76
2020/12/30 12:28:53;;;;;;;39.88;20.75;;;4.40;92.30;;;;;;5004947;28;20030;-77
2020/12/30 12:31:19;;;;;;;40.45;20.98;;;4.40;92.30;;;;;;5023508;28;20037;-76
2020/12/30 12:33:45;;;;;;;39.65;20.55;;;4.40;92.30;;;;;;5019946;28;20084;-77
2020/12/30 12:36:14;;;;;;;42.38;21.50;;;4.40;92.40;;;;;;5001714;28;20037;-76
2020/12/30 12:38:41;;;;;;;40.45;20.08;;;4.40;92.40;;;;;;5027117;28;20034;-77
2020/12/30 12:41:07;;;;;;;37.70;19.63;;;4.40;92.50;;;;;;5025272;28;20026;-77
2020/12/30 12:43:32;;;;;;;39.83;19.70;;;4.40;92.70;;;;;;5024630;28;20032;-77